sensor_id;sensor_type;location;lat;lon;timestamp;P1;durP1;ratioP1;P2;durP2;ratioP2
38034;SDS011;23841;48.524;1.342;2023-11-19T00:00:16;0.88;;;0.45;;
38034;SDS011;23841;48.524;1.342;2023-11-19T00:02:42;0.43;;;0.30;;
38034;SDS011;23841;48.524;1.342;2023-11-19T00:05:07;0.55;;;0.38;;
38034;SDS011;23841;48.524;1.342;2023-11-19T00:07:36;1.92;;;0.40;;
38034;SDS011;23841;48.524;1.342;2023-11-19T00:10:06;0.32;;;0.28;;
38034;SDS011;23841;48.524;1.342;2023-11-19T00:12:34;1.45;;;0.45;;
38034;SDS011;23841;48.524;1.342;2023-11-19T00:15:00;0.40;;;0.38;;
38034;SDS011;23841;48.524;1.342;2023-11-19T00:17:26;0.38;;;0.38;;
38034;SDS011;23841;48.524;1.342;2023-11-19T00:19:52;0.35;;;0.20;;
38034;SDS011;23841;48.524;1.342;2023-11-19T00:22:17;1.38;;;0.47;;
38034;SDS011;23841;48.524;1.342;2023-11-19T00:24:43;0.10;;;0.10;;
38034;SDS011;23841;48.524;1.342;2023-11-19T00:27:09;1.35;;;0.43;;
38034;SDS011;23841;48.524;1.342;2023-11-19T00:29:35;0.50;;;0.30;;
38034;SDS011;23841;48.524;1.342;2023-11-19T00:32:01;0.68;;;0.43;;
38034;SDS011;23841;48.524;1.342;2023-11-19T00:34:27;0.55;;;0.30;;
38034;SDS011;23841;48.524;1.342;2023-11-19T00:36:52;0.88;;;0.40;;
38034;SDS011;23841;48.524;1.342;2023-11-19T00:39:17;1.08;;;0.40;;
38034;SDS011;23841;48.524;1.342;2023-11-19T00:41:43;1.20;;;0.50;;
38034;SDS011;23841;48.524;1.342;2023-11-19T00:44:08;0.65;;;0.30;;
38034;SDS011;23841;48.524;1.342;2023-11-19T00:46:34;0.93;;;0.40;;
38034;SDS011;23841;48.524;1.342;2023-11-19T00:48:59;0.82;;;0.50;;
38034;SDS011;23841;48.524;1.342;2023-11-19T00:51:26;1.05;;;0.50;;
38034;SDS011;23841;48.524;1.342;2023-11-19T00:53:51;0.55;;;0.30;;
38034;SDS011;23841;48.524;1.342;2023-11-19T00:56:18;1.00;;;0.43;;
38034;SDS011;23841;48.524;1.342;2023-11-19T00:58:44;1.55;;;0.30;;
38034;SDS011;23841;48.524;1.342;2023-11-19T01:01:13;0.65;;;0.40;;
38034;SDS011;23841;48.524;1.342;2023-11-19T01:03:38;0.65;;;0.40;;
38034;SDS011;23841;48.524;1.342;2023-11-19T01:06:04;0.68;;;0.50;;
38034;SDS011;23841;48.524;1.342;2023-11-19T01:08:30;0.50;;;0.40;;
38034;SDS011;23841;48.524;1.342;2023-11-19T01:10:55;0.75;;;0.30;;
38034;SDS011;23841;48.524;1.342;2023-11-19T01:13:20;1.40;;;0.40;;
38034;SDS011;23841;48.524;1.342;2023-11-19T01:15:46;1.38;;;0.50;;
38034;SDS011;23841;48.524;1.342;2023-11-19T01:18:12;1.73;;;0.52;;
38034;SDS011;23841;48.524;1.342;2023-11-19T01:20:38;1.98;;;0.60;;
38034;SDS011;23841;48.524;1.342;2023-11-19T01:23:04;0.82;;;0.70;;
38034;SDS011;23841;48.524;1.342;2023-11-19T01:25:30;0.50;;;0.40;;
38034;SDS011;23841;48.524;1.342;2023-11-19T01:27:55;1.77;;;0.40;;
38034;SDS011;23841;48.524;1.342;2023-11-19T01:30:23;1.50;;;0.35;;
38034;SDS011;23841;48.524;1.342;2023-11-19T01:32:49;1.33;;;0.50;;
38034;SDS011;23841;48.524;1.342;2023-11-19T01:35:14;1.00;;;0.40;;
38034;SDS011;23841;48.524;1.342;2023-11-19T01:37:40;0.90;;;0.30;;
38034;SDS011;23841;48.524;1.342;2023-11-19T01:40:05;0.95;;;0.45;;
38034;SDS011;23841;48.524;1.342;2023-11-19T01:42:39;1.30;;;0.70;;
38034;SDS011;23841;48.524;1.342;2023-11-19T01:45:05;1.48;;;0.47;;
38034;SDS011;23841;48.524;1.342;2023-11-19T01:47:33;2.42;;;0.57;;
38034;SDS011;23841;48.524;1.342;2023-11-19T01:50:00;1.98;;;0.45;;
38034;SDS011;23841;48.524;1.342;2023-11-19T01:52:27;1.00;;;0.57;;
38034;SDS011;23841;48.524;1.342;2023-11-19T01:54:52;1.25;;;0.50;;
38034;SDS011;23841;48.524;1.342;2023-11-19T01:57:20;2.42;;;0.70;;
38034;SDS011;23841;48.524;1.342;2023-11-19T01:59:48;0.77;;;0.50;;
38034;SDS011;23841;48.524;1.342;2023-11-19T02:02:16;1.30;;;0.40;;
38034;SDS011;23841;48.524;1.342;2023-11-19T02:04:46;1.05;;;0.60;;
38034;SDS011;23841;48.524;1.342;2023-11-19T02:07:13;2.33;;;0.63;;
38034;SDS011;23841;48.524;1.342;2023-11-19T02:09:42;1.48;;;0.60;;
38034;SDS011;23841;48.524;1.342;2023-11-19T02:12:07;1.25;;;0.40;;
38034;SDS011;23841;48.524;1.342;2023-11-19T02:14:34;1.65;;;0.40;;
38034;SDS011;23841;48.524;1.342;2023-11-19T02:17:00;1.00;;;0.50;;
38034;SDS011;23841;48.524;1.342;2023-11-19T02:19:25;0.88;;;0.40;;
38034;SDS011;23841;48.524;1.342;2023-11-19T02:21:50;0.75;;;0.43;;
38034;SDS011;23841;48.524;1.342;2023-11-19T02:24:16;1.85;;;0.50;;
38034;SDS011;23841;48.524;1.342;2023-11-19T02:26:53;1.77;;;0.52;;
38034;SDS011;23841;48.524;1.342;2023-11-19T02:29:27;2.58;;;0.80;;
38034;SDS011;23841;48.524;1.342;2023-11-19T02:31:53;1.90;;;0.35;;
38034;SDS011;23841;48.524;1.342;2023-11-19T02:34:20;2.55;;;0.85;;
38034;SDS011;23841;48.524;1.342;2023-11-19T02:36:46;2.30;;;0.60;;
38034;SDS011;23841;48.524;1.342;2023-11-19T02:39:12;0.85;;;0.50;;
38034;SDS011;23841;48.524;1.342;2023-11-19T02:41:38;3.28;;;0.70;;
38034;SDS011;23841;48.524;1.342;2023-11-19T02:44:05;0.77;;;0.50;;
38034;SDS011;23841;48.524;1.342;2023-11-19T02:46:31;1.95;;;0.60;;
38034;SDS011;23841;48.524;1.342;2023-11-19T02:48:57;1.48;;;0.50;;
38034;SDS011;23841;48.524;1.342;2023-11-19T02:51:22;3.50;;;0.50;;
38034;SDS011;23841;48.524;1.342;2023-11-19T02:53:48;1.30;;;0.60;;
38034;SDS011;23841;48.524;1.342;2023-11-19T02:56:13;3.00;;;0.47;;
38034;SDS011;23841;48.524;1.342;2023-11-19T02:58:50;0.98;;;0.60;;
38034;SDS011;23841;48.524;1.342;2023-11-19T03:01:21;1.55;;;0.55;;
38034;SDS011;23841;48.524;1.342;2023-11-19T03:03:57;1.77;;;0.50;;
38034;SDS011;23841;48.524;1.342;2023-11-19T03:06:23;2.90;;;0.75;;
38034;SDS011;23841;48.524;1.342;2023-11-19T03:08:49;1.85;;;0.70;;
38034;SDS011;23841;48.524;1.342;2023-11-19T03:11:15;1.60;;;0.50;;
38034;SDS011;23841;48.524;1.342;2023-11-19T03:13:40;3.50;;;0.70;;
38034;SDS011;23841;48.524;1.342;2023-11-19T03:16:06;1.25;;;0.52;;
38034;SDS011;23841;48.524;1.342;2023-11-19T03:18:32;2.38;;;0.50;;
38034;SDS011;23841;48.524;1.342;2023-11-19T03:20:58;3.65;;;0.77;;
38034;SDS011;23841;48.524;1.342;2023-11-19T03:23:23;1.20;;;0.60;;
38034;SDS011;23841;48.524;1.342;2023-11-19T03:25:49;1.50;;;0.60;;
38034;SDS011;23841;48.524;1.342;2023-11-19T03:28:15;1.63;;;0.50;;
38034;SDS011;23841;48.524;1.342;2023-11-19T03:30:40;3.08;;;0.63;;
38034;SDS011;23841;48.524;1.342;2023-11-19T03:33:06;2.97;;;0.60;;
38034;SDS011;23841;48.524;1.342;2023-11-19T03:35:31;2.25;;;0.98;;
38034;SDS011;23841;48.524;1.342;2023-11-19T03:37:58;1.98;;;0.73;;
38034;SDS011;23841;48.524;1.342;2023-11-19T03:40:23;1.35;;;0.55;;
38034;SDS011;23841;48.524;1.342;2023-11-19T03:42:50;3.70;;;1.05;;
38034;SDS011;23841;48.524;1.342;2023-11-19T03:45:16;1.75;;;0.63;;
38034;SDS011;23841;48.524;1.342;2023-11-19T03:47:41;2.08;;;0.77;;
38034;SDS011;23841;48.524;1.342;2023-11-19T03:50:07;1.60;;;0.60;;
38034;SDS011;23841;48.524;1.342;2023-11-19T03:52:33;2.35;;;0.80;;
38034;SDS011;23841;48.524;1.342;2023-11-19T03:54:59;3.45;;;1.15;;
38034;SDS011;23841;48.524;1.342;2023-11-19T03:57:25;3.45;;;0.63;;
38034;SDS011;23841;48.524;1.342;2023-11-19T03:59:52;1.73;;;0.73;;
38034;SDS011;23841;48.524;1.342;2023-11-19T04:02:18;2.00;;;0.80;;
38034;SDS011;23841;48.524;1.342;2023-11-19T04:04:44;1.50;;;0.60;;
38034;SDS011;23841;48.524;1.342;2023-11-19T04:07:09;2.67;;;0.70;;
38034;SDS011;23841;48.524;1.342;2023-11-19T04:09:35;2.35;;;0.70;;
38034;SDS011;23841;48.524;1.342;2023-11-19T04:12:02;2.25;;;0.60;;
38034;SDS011;23841;48.524;1.342;2023-11-19T04:14:28;1.38;;;0.60;;
38034;SDS011;23841;48.524;1.342;2023-11-19T04:16:54;4.78;;;1.00;;
38034;SDS011;23841;48.524;1.342;2023-11-19T04:19:19;2.80;;;0.60;;
38034;SDS011;23841;48.524;1.342;2023-11-19T04:21:45;5.60;;;0.95;;
38034;SDS011;23841;48.524;1.342;2023-11-19T04:24:11;3.60;;;0.80;;
38034;SDS011;23841;48.524;1.342;2023-11-19T04:26:43;3.58;;;0.70;;
38034;SDS011;23841;48.524;1.342;2023-11-19T04:29:11;2.40;;;0.80;;
38034;SDS011;23841;48.524;1.342;2023-11-19T04:31:37;2.13;;;0.73;;
38034;SDS011;23841;48.524;1.342;2023-11-19T04:34:04;1.38;;;0.70;;
38034;SDS011;23841;48.524;1.342;2023-11-19T04:36:29;2.70;;;0.80;;
38034;SDS011;23841;48.524;1.342;2023-11-19T04:38:55;3.33;;;0.70;;
38034;SDS011;23841;48.524;1.342;2023-11-19T04:41:20;1.50;;;0.60;;
38034;SDS011;23841;48.524;1.342;2023-11-19T04:43:46;1.52;;;0.70;;
38034;SDS011;23841;48.524;1.342;2023-11-19T04:46:11;5.55;;;0.70;;
38034;SDS011;23841;48.524;1.342;2023-11-19T04:48:36;4.75;;;1.25;;
38034;SDS011;23841;48.524;1.342;2023-11-19T04:51:04;2.50;;;0.88;;
38034;SDS011;23841;48.524;1.342;2023-11-19T04:53:30;3.40;;;0.80;;
38034;SDS011;23841;48.524;1.342;2023-11-19T04:55:55;2.03;;;0.80;;
38034;SDS011;23841;48.524;1.342;2023-11-19T04:58:21;2.20;;;0.65;;
38034;SDS011;23841;48.524;1.342;2023-11-19T05:00:46;5.38;;;1.55;;
38034;SDS011;23841;48.524;1.342;2023-11-19T05:03:12;2.88;;;0.68;;
38034;SDS011;23841;48.524;1.342;2023-11-19T05:05:37;2.35;;;0.95;;
38034;SDS011;23841;48.524;1.342;2023-11-19T05:08:03;2.85;;;0.60;;
38034;SDS011;23841;48.524;1.342;2023-11-19T05:10:28;1.88;;;0.68;;
38034;SDS011;23841;48.524;1.342;2023-11-19T05:12:54;3.22;;;0.80;;
38034;SDS011;23841;48.524;1.342;2023-11-19T05:15:21;2.03;;;0.77;;
38034;SDS011;23841;48.524;1.342;2023-11-19T05:17:46;2.22;;;0.63;;
38034;SDS011;23841;48.524;1.342;2023-11-19T05:20:12;3.78;;;1.00;;
38034;SDS011;23841;48.524;1.342;2023-11-19T05:22:41;5.00;;;1.25;;
38034;SDS011;23841;48.524;1.342;2023-11-19T05:25:07;2.75;;;1.10;;
38034;SDS011;23841;48.524;1.342;2023-11-19T05:27:34;4.40;;;0.98;;
38034;SDS011;23841;48.524;1.342;2023-11-19T05:30:05;3.75;;;1.00;;
38034;SDS011;23841;48.524;1.342;2023-11-19T05:32:35;4.13;;;1.15;;
38034;SDS011;23841;48.524;1.342;2023-11-19T05:35:01;3.45;;;0.90;;
38034;SDS011;23841;48.524;1.342;2023-11-19T05:37:27;4.07;;;1.30;;
38034;SDS011;23841;48.524;1.342;2023-11-19T05:39:52;3.47;;;1.02;;
38034;SDS011;23841;48.524;1.342;2023-11-19T05:42:18;2.70;;;0.85;;
38034;SDS011;23841;48.524;1.342;2023-11-19T05:44:43;2.78;;;0.85;;
38034;SDS011;23841;48.524;1.342;2023-11-19T05:47:09;3.40;;;1.00;;
38034;SDS011;23841;48.524;1.342;2023-11-19T05:49:34;1.17;;;0.52;;
38034;SDS011;23841;48.524;1.342;2023-11-19T05:52:00;6.20;;;1.00;;
38034;SDS011;23841;48.524;1.342;2023-11-19T05:54:26;2.78;;;0.88;;
38034;SDS011;23841;48.524;1.342;2023-11-19T05:56:52;3.40;;;0.80;;
38034;SDS011;23841;48.524;1.342;2023-11-19T05:59:19;3.40;;;0.77;;
38034;SDS011;23841;48.524;1.342;2023-11-19T06:01:45;2.80;;;0.90;;
38034;SDS011;23841;48.524;1.342;2023-11-19T06:04:11;3.30;;;1.08;;
38034;SDS011;23841;48.524;1.342;2023-11-19T06:06:37;2.53;;;1.20;;
38034;SDS011;23841;48.524;1.342;2023-11-19T06:09:03;3.17;;;0.80;;
38034;SDS011;23841;48.524;1.342;2023-11-19T06:11:29;4.75;;;1.20;;
38034;SDS011;23841;48.524;1.342;2023-11-19T06:13:54;3.75;;;0.75;;
38034;SDS011;23841;48.524;1.342;2023-11-19T06:16:21;4.38;;;1.13;;
38034;SDS011;23841;48.524;1.342;2023-11-19T06:18:46;2.72;;;1.05;;
38034;SDS011;23841;48.524;1.342;2023-11-19T06:21:12;2.08;;;0.85;;
38034;SDS011;23841;48.524;1.342;2023-11-19T06:23:37;3.28;;;0.88;;
38034;SDS011;23841;48.524;1.342;2023-11-19T06:26:03;2.17;;;0.98;;
38034;SDS011;23841;48.524;1.342;2023-11-19T06:28:30;1.92;;;0.70;;
38034;SDS011;23841;48.524;1.342;2023-11-19T06:30:56;3.75;;;0.95;;
38034;SDS011;23841;48.524;1.342;2023-11-19T06:33:23;2.55;;;0.82;;
38034;SDS011;23841;48.524;1.342;2023-11-19T06:35:49;5.57;;;1.10;;
38034;SDS011;23841;48.524;1.342;2023-11-19T06:38:14;4.07;;;0.93;;
38034;SDS011;23841;48.524;1.342;2023-11-19T06:40:40;5.22;;;0.95;;
38034;SDS011;23841;48.524;1.342;2023-11-19T06:43:06;3.38;;;0.80;;
38034;SDS011;23841;48.524;1.342;2023-11-19T06:45:33;4.72;;;1.30;;
38034;SDS011;23841;48.524;1.342;2023-11-19T06:48:02;2.60;;;0.80;;
38034;SDS011;23841;48.524;1.342;2023-11-19T06:50:29;2.78;;;0.90;;
38034;SDS011;23841;48.524;1.342;2023-11-19T06:52:54;4.80;;;0.98;;
38034;SDS011;23841;48.524;1.342;2023-11-19T06:55:19;5.40;;;1.00;;
38034;SDS011;23841;48.524;1.342;2023-11-19T06:57:45;3.45;;;0.98;;
38034;SDS011;23841;48.524;1.342;2023-11-19T07:00:10;3.33;;;0.82;;
38034;SDS011;23841;48.524;1.342;2023-11-19T07:02:37;5.05;;;1.05;;
38034;SDS011;23841;48.524;1.342;2023-11-19T07:05:02;5.53;;;1.70;;
38034;SDS011;23841;48.524;1.342;2023-11-19T07:07:30;3.58;;;0.80;;
38034;SDS011;23841;48.524;1.342;2023-11-19T07:09:56;3.70;;;1.27;;
38034;SDS011;23841;48.524;1.342;2023-11-19T07:12:22;2.75;;;1.20;;
38034;SDS011;23841;48.524;1.342;2023-11-19T07:14:47;6.32;;;1.48;;
38034;SDS011;23841;48.524;1.342;2023-11-19T07:17:13;4.43;;;1.55;;
38034;SDS011;23841;48.524;1.342;2023-11-19T07:19:38;5.55;;;1.20;;
38034;SDS011;23841;48.524;1.342;2023-11-19T07:22:05;6.78;;;1.50;;
38034;SDS011;23841;48.524;1.342;2023-11-19T07:24:31;5.35;;;1.23;;
38034;SDS011;23841;48.524;1.342;2023-11-19T07:26:56;6.47;;;1.38;;
38034;SDS011;23841;48.524;1.342;2023-11-19T07:29:22;3.03;;;0.95;;
38034;SDS011;23841;48.524;1.342;2023-11-19T07:31:50;6.00;;;1.23;;
38034;SDS011;23841;48.524;1.342;2023-11-19T07:34:16;5.75;;;1.17;;
38034;SDS011;23841;48.524;1.342;2023-11-19T07:36:42;6.60;;;0.95;;
38034;SDS011;23841;48.524;1.342;2023-11-19T07:39:07;6.28;;;1.10;;
38034;SDS011;23841;48.524;1.342;2023-11-19T07:41:33;4.57;;;1.23;;
38034;SDS011;23841;48.524;1.342;2023-11-19T07:43:59;7.97;;;1.48;;
38034;SDS011;23841;48.524;1.342;2023-11-19T07:46:25;4.78;;;1.40;;
38034;SDS011;23841;48.524;1.342;2023-11-19T07:48:50;6.60;;;1.42;;
38034;SDS011;23841;48.524;1.342;2023-11-19T07:51:17;4.85;;;1.23;;
38034;SDS011;23841;48.524;1.342;2023-11-19T07:53:42;6.95;;;1.75;;
38034;SDS011;23841;48.524;1.342;2023-11-19T07:56:08;5.28;;;1.23;;
38034;SDS011;23841;48.524;1.342;2023-11-19T07:58:33;4.00;;;1.10;;
38034;SDS011;23841;48.524;1.342;2023-11-19T08:00:59;5.75;;;1.65;;
38034;SDS011;23841;48.524;1.342;2023-11-19T08:03:26;7.80;;;1.35;;
38034;SDS011;23841;48.524;1.342;2023-11-19T08:05:54;4.93;;;1.63;;
38034;SDS011;23841;48.524;1.342;2023-11-19T08:08:21;7.28;;;1.60;;
38034;SDS011;23841;48.524;1.342;2023-11-19T08:10:46;4.40;;;1.40;;
38034;SDS011;23841;48.524;1.342;2023-11-19T08:13:12;6.75;;;1.60;;
38034;SDS011;23841;48.524;1.342;2023-11-19T08:15:38;4.82;;;1.20;;
38034;SDS011;23841;48.524;1.342;2023-11-19T08:18:04;9.82;;;1.67;;
38034;SDS011;23841;48.524;1.342;2023-11-19T08:20:30;6.60;;;1.38;;
38034;SDS011;23841;48.524;1.342;2023-11-19T08:22:55;4.28;;;1.25;;
38034;SDS011;23841;48.524;1.342;2023-11-19T08:25:21;5.25;;;1.70;;
38034;SDS011;23841;48.524;1.342;2023-11-19T08:27:46;6.95;;;1.70;;
38034;SDS011;23841;48.524;1.342;2023-11-19T08:30:12;7.75;;;2.15;;
38034;SDS011;23841;48.524;1.342;2023-11-19T08:32:37;6.50;;;2.25;;
38034;SDS011;23841;48.524;1.342;2023-11-19T08:35:03;6.93;;;1.25;;
38034;SDS011;23841;48.524;1.342;2023-11-19T08:37:29;6.68;;;1.73;;
38034;SDS011;23841;48.524;1.342;2023-11-19T08:39:54;7.80;;;1.58;;
38034;SDS011;23841;48.524;1.342;2023-11-19T08:42:20;8.07;;;1.52;;
38034;SDS011;23841;48.524;1.342;2023-11-19T08:44:50;5.07;;;1.08;;
38034;SDS011;23841;48.524;1.342;2023-11-19T08:47:19;6.68;;;1.55;;
38034;SDS011;23841;48.524;1.342;2023-11-19T08:49:44;7.60;;;1.88;;
38034;SDS011;23841;48.524;1.342;2023-11-19T08:52:11;6.82;;;1.60;;
38034;SDS011;23841;48.524;1.342;2023-11-19T08:54:42;5.97;;;1.50;;
38034;SDS011;23841;48.524;1.342;2023-11-19T08:57:08;7.57;;;1.90;;
38034;SDS011;23841;48.524;1.342;2023-11-19T08:59:34;6.40;;;1.48;;
38034;SDS011;23841;48.524;1.342;2023-11-19T09:01:59;8.10;;;1.30;;
38034;SDS011;23841;48.524;1.342;2023-11-19T09:04:25;4.55;;;1.35;;
38034;SDS011;23841;48.524;1.342;2023-11-19T09:06:50;8.55;;;1.50;;
38034;SDS011;23841;48.524;1.342;2023-11-19T09:09:16;7.03;;;1.83;;
38034;SDS011;23841;48.524;1.342;2023-11-19T09:11:42;7.20;;;1.55;;
38034;SDS011;23841;48.524;1.342;2023-11-19T09:14:07;6.50;;;1.90;;
38034;SDS011;23841;48.524;1.342;2023-11-19T09:16:33;8.50;;;2.15;;
38034;SDS011;23841;48.524;1.342;2023-11-19T09:18:58;7.70;;;1.70;;
38034;SDS011;23841;48.524;1.342;2023-11-19T09:21:25;7.03;;;1.75;;
38034;SDS011;23841;48.524;1.342;2023-11-19T09:23:51;6.43;;;1.90;;
38034;SDS011;23841;48.524;1.342;2023-11-19T09:26:18;9.48;;;2.47;;
38034;SDS011;23841;48.524;1.342;2023-11-19T09:28:43;6.82;;;1.60;;
38034;SDS011;23841;48.524;1.342;2023-11-19T09:31:15;7.18;;;1.65;;
38034;SDS011;23841;48.524;1.342;2023-11-19T09:33:41;10.40;;;1.85;;
38034;SDS011;23841;48.524;1.342;2023-11-19T09:36:07;9.25;;;2.17;;
38034;SDS011;23841;48.524;1.342;2023-11-19T09:38:34;8.13;;;1.60;;
38034;SDS011;23841;48.524;1.342;2023-11-19T09:41:05;7.60;;;1.60;;
38034;SDS011;23841;48.524;1.342;2023-11-19T09:43:34;9.50;;;2.33;;
38034;SDS011;23841;48.524;1.342;2023-11-19T09:46:02;6.72;;;1.55;;
38034;SDS011;23841;48.524;1.342;2023-11-19T09:48:35;9.55;;;1.98;;
38034;SDS011;23841;48.524;1.342;2023-11-19T09:51:05;8.80;;;2.00;;
38034;SDS011;23841;48.524;1.342;2023-11-19T09:53:32;8.80;;;1.50;;
38034;SDS011;23841;48.524;1.342;2023-11-19T09:56:00;6.68;;;1.85;;
38034;SDS011;23841;48.524;1.342;2023-11-19T09:58:28;10.20;;;1.77;;
38034;SDS011;23841;48.524;1.342;2023-11-19T10:00:54;12.10;;;2.90;;
38034;SDS011;23841;48.524;1.342;2023-11-19T10:03:19;8.13;;;1.60;;
38034;SDS011;23841;48.524;1.342;2023-11-19T10:05:48;10.50;;;2.60;;
38034;SDS011;23841;48.524;1.342;2023-11-19T10:08:13;11.82;;;2.53;;
38034;SDS011;23841;48.524;1.342;2023-11-19T10:10:39;9.98;;;1.65;;
38034;SDS011;23841;48.524;1.342;2023-11-19T10:13:04;11.05;;;1.70;;
38034;SDS011;23841;48.524;1.342;2023-11-19T10:15:33;8.15;;;1.98;;
38034;SDS011;23841;48.524;1.342;2023-11-19T10:18:01;12.38;;;1.95;;
38034;SDS011;23841;48.524;1.342;2023-11-19T10:20:34;7.35;;;2.15;;
38034;SDS011;23841;48.524;1.342;2023-11-19T10:23:00;11.90;;;2.53;;
38034;SDS011;23841;48.524;1.342;2023-11-19T10:25:26;8.05;;;2.00;;
38034;SDS011;23841;48.524;1.342;2023-11-19T10:27:53;7.30;;;2.35;;
38034;SDS011;23841;48.524;1.342;2023-11-19T10:30:23;12.95;;;2.92;;
38034;SDS011;23841;48.524;1.342;2023-11-19T10:35:35;12.88;;;2.40;;
38034;SDS011;23841;48.524;1.342;2023-11-19T10:38:23;9.75;;;2.17;;
38034;SDS011;23841;48.524;1.342;2023-11-19T10:40:48;10.63;;;2.40;;
38034;SDS011;23841;48.524;1.342;2023-11-19T10:43:15;16.25;;;2.33;;
38034;SDS011;23841;48.524;1.342;2023-11-19T10:45:42;14.13;;;2.67;;
38034;SDS011;23841;48.524;1.342;2023-11-19T10:48:07;14.45;;;2.53;;
38034;SDS011;23841;48.524;1.342;2023-11-19T10:50:33;10.75;;;2.45;;
38034;SDS011;23841;48.524;1.342;2023-11-19T10:53:00;12.15;;;2.75;;
38034;SDS011;23841;48.524;1.342;2023-11-19T10:55:29;16.73;;;2.97;;
38034;SDS011;23841;48.524;1.342;2023-11-19T10:57:59;11.90;;;2.20;;
38034;SDS011;23841;48.524;1.342;2023-11-19T11:00:26;8.00;;;2.35;;
38034;SDS011;23841;48.524;1.342;2023-11-19T11:02:56;11.50;;;2.33;;
38034;SDS011;23841;48.524;1.342;2023-11-19T11:05:26;12.48;;;2.92;;
38034;SDS011;23841;48.524;1.342;2023-11-19T11:07:52;9.65;;;2.28;;
38034;SDS011;23841;48.524;1.342;2023-11-19T11:10:20;13.63;;;2.33;;
38034;SDS011;23841;48.524;1.342;2023-11-19T11:12:48;11.93;;;3.33;;
38034;SDS011;23841;48.524;1.342;2023-11-19T11:15:15;14.75;;;2.55;;
38034;SDS011;23841;48.524;1.342;2023-11-19T11:17:43;11.00;;;2.45;;
38034;SDS011;23841;48.524;1.342;2023-11-19T11:20:11;11.60;;;2.85;;
38034;SDS011;23841;48.524;1.342;2023-11-19T11:22:44;10.32;;;2.17;;
38034;SDS011;23841;48.524;1.342;2023-11-19T11:33:34;12.60;;;2.70;;
38034;SDS011;23841;48.524;1.342;2023-11-19T11:36:21;18.52;;;2.55;;
38034;SDS011;23841;48.524;1.342;2023-11-19T11:38:49;13.65;;;2.38;;
38034;SDS011;23841;48.524;1.342;2023-11-19T11:41:21;14.38;;;3.15;;
38034;SDS011;23841;48.524;1.342;2023-11-19T11:43:53;12.05;;;2.42;;
38034;SDS011;23841;48.524;1.342;2023-11-19T11:49:02;16.65;;;2.95;;
38034;SDS011;23841;48.524;1.342;2023-11-19T11:54:09;13.05;;;2.85;;
38034;SDS011;23841;48.524;1.342;2023-11-19T11:56:44;11.52;;;3.05;;
38034;SDS011;23841;48.524;1.342;2023-11-19T11:59:47;13.75;;;2.92;;
38034;SDS011;23841;48.524;1.342;2023-11-19T12:02:17;13.40;;;2.50;;
38034;SDS011;23841;48.524;1.342;2023-11-19T12:04:47;17.70;;;3.45;;
38034;SDS011;23841;48.524;1.342;2023-11-19T12:07:15;15.10;;;3.22;;
38034;SDS011;23841;48.524;1.342;2023-11-19T12:09:46;20.88;;;4.28;;
38034;SDS011;23841;48.524;1.342;2023-11-19T12:19:58;13.85;;;2.55;;
38034;SDS011;23841;48.524;1.342;2023-11-19T12:22:25;14.85;;;2.88;;
38034;SDS011;23841;48.524;1.342;2023-11-19T12:24:51;15.38;;;2.60;;
38034;SDS011;23841;48.524;1.342;2023-11-19T12:27:18;19.40;;;2.80;;
38034;SDS011;23841;48.524;1.342;2023-11-19T12:29:47;20.42;;;2.67;;
38034;SDS011;23841;48.524;1.342;2023-11-19T12:32:12;12.68;;;1.95;;
38034;SDS011;23841;48.524;1.342;2023-11-19T12:34:38;12.07;;;2.25;;
38034;SDS011;23841;48.524;1.342;2023-11-19T12:37:04;9.25;;;2.30;;
38034;SDS011;23841;48.524;1.342;2023-11-19T12:39:30;16.40;;;2.72;;
38034;SDS011;23841;48.524;1.342;2023-11-19T12:41:56;14.73;;;2.40;;
38034;SDS011;23841;48.524;1.342;2023-11-19T12:44:24;15.88;;;3.13;;
38034;SDS011;23841;48.524;1.342;2023-11-19T12:47:06;13.70;;;2.40;;
38034;SDS011;23841;48.524;1.342;2023-11-19T12:49:32;12.60;;;3.30;;
38034;SDS011;23841;48.524;1.342;2023-11-19T12:51:58;11.43;;;2.05;;
38034;SDS011;23841;48.524;1.342;2023-11-19T12:54:37;14.68;;;2.17;;
38034;SDS011;23841;48.524;1.342;2023-11-19T12:57:03;14.63;;;2.45;;
38034;SDS011;23841;48.524;1.342;2023-11-19T12:59:30;14.45;;;2.90;;
38034;SDS011;23841;48.524;1.342;2023-11-19T13:01:56;12.70;;;2.97;;
38034;SDS011;23841;48.524;1.342;2023-11-19T13:04:28;15.32;;;2.88;;
38034;SDS011;23841;48.524;1.342;2023-11-19T13:07:11;14.68;;;2.38;;
38034;SDS011;23841;48.524;1.342;2023-11-19T13:09:36;13.75;;;2.30;;
38034;SDS011;23841;48.524;1.342;2023-11-19T13:12:12;8.45;;;2.20;;
38034;SDS011;23841;48.524;1.342;2023-11-19T13:14:41;13.48;;;3.28;;
38034;SDS011;23841;48.524;1.342;2023-11-19T13:17:12;9.75;;;2.38;;
38034;SDS011;23841;48.524;1.342;2023-11-19T13:19:39;10.50;;;2.45;;
38034;SDS011;23841;48.524;1.342;2023-11-19T13:22:04;11.98;;;2.08;;
38034;SDS011;23841;48.524;1.342;2023-11-19T13:24:30;10.65;;;2.22;;
38034;SDS011;23841;48.524;1.342;2023-11-19T13:26:55;16.38;;;3.38;;
38034;SDS011;23841;48.524;1.342;2023-11-19T13:29:21;13.05;;;2.22;;
38034;SDS011;23841;48.524;1.342;2023-11-19T13:31:46;13.98;;;2.10;;
38034;SDS011;23841;48.524;1.342;2023-11-19T13:34:12;16.13;;;3.17;;
38034;SDS011;23841;48.524;1.342;2023-11-19T13:36:37;15.32;;;2.92;;
38034;SDS011;23841;48.524;1.342;2023-11-19T13:39:04;8.57;;;1.75;;
38034;SDS011;23841;48.524;1.342;2023-11-19T13:41:29;12.52;;;2.15;;
38034;SDS011;23841;48.524;1.342;2023-11-19T13:43:55;8.63;;;1.58;;
38034;SDS011;23841;48.524;1.342;2023-11-19T13:46:20;7.88;;;2.30;;
38034;SDS011;23841;48.524;1.342;2023-11-19T13:48:46;13.20;;;3.00;;
38034;SDS011;23841;48.524;1.342;2023-11-19T13:51:11;14.45;;;2.95;;
38034;SDS011;23841;48.524;1.342;2023-11-19T13:53:36;11.10;;;1.77;;
38034;SDS011;23841;48.524;1.342;2023-11-19T13:56:02;12.18;;;1.95;;
38034;SDS011;23841;48.524;1.342;2023-11-19T13:58:28;10.27;;;2.25;;
38034;SDS011;23841;48.524;1.342;2023-11-19T14:00:53;10.13;;;2.22;;
38034;SDS011;23841;48.524;1.342;2023-11-19T14:03:19;9.95;;;2.50;;
38034;SDS011;23841;48.524;1.342;2023-11-19T14:05:45;9.27;;;1.90;;
38034;SDS011;23841;48.524;1.342;2023-11-19T14:08:10;10.27;;;2.38;;
38034;SDS011;23841;48.524;1.342;2023-11-19T14:10:38;8.23;;;1.77;;
38034;SDS011;23841;48.524;1.342;2023-11-19T14:13:05;10.27;;;2.13;;
38034;SDS011;23841;48.524;1.342;2023-11-19T14:15:31;19.02;;;4.05;;
38034;SDS011;23841;48.524;1.342;2023-11-19T14:17:57;10.00;;;2.13;;
38034;SDS011;23841;48.524;1.342;2023-11-19T14:20:22;7.47;;;1.63;;
38034;SDS011;23841;48.524;1.342;2023-11-19T14:22:48;10.95;;;2.33;;
38034;SDS011;23841;48.524;1.342;2023-11-19T14:25:15;11.30;;;1.80;;
38034;SDS011;23841;48.524;1.342;2023-11-19T14:27:42;10.80;;;2.00;;
38034;SDS011;23841;48.524;1.342;2023-11-19T14:30:09;9.82;;;2.55;;
38034;SDS011;23841;48.524;1.342;2023-11-19T14:32:36;11.52;;;2.00;;
38034;SDS011;23841;48.524;1.342;2023-11-19T14:35:02;8.88;;;1.88;;
38034;SDS011;23841;48.524;1.342;2023-11-19T14:37:29;11.63;;;2.42;;
38034;SDS011;23841;48.524;1.342;2023-11-19T14:39:56;8.95;;;1.90;;
38034;SDS011;23841;48.524;1.342;2023-11-19T14:42:22;11.20;;;2.40;;
38034;SDS011;23841;48.524;1.342;2023-11-19T14:44:48;10.70;;;2.40;;
38034;SDS011;23841;48.524;1.342;2023-11-19T14:47:14;13.98;;;3.17;;
38034;SDS011;23841;48.524;1.342;2023-11-19T14:49:39;10.98;;;2.92;;
38034;SDS011;23841;48.524;1.342;2023-11-19T14:52:05;11.88;;;2.10;;
38034;SDS011;23841;48.524;1.342;2023-11-19T14:54:30;12.02;;;2.03;;
38034;SDS011;23841;48.524;1.342;2023-11-19T14:56:56;11.70;;;2.80;;
38034;SDS011;23841;48.524;1.342;2023-11-19T14:59:21;10.50;;;1.95;;
38034;SDS011;23841;48.524;1.342;2023-11-19T15:01:47;8.80;;;1.92;;
38034;SDS011;23841;48.524;1.342;2023-11-19T15:04:12;11.85;;;2.38;;